University, MS

10:40 AM CDT on May 29, 2015 (GMT -0500)
Bickerstaff Road / Belk Blvd | | Change Station
CLOSE
Current Station
Personal Weather Station
Location: Oxford, MS
Elevation: 440 ft
Nearby Weather Stations

Elev 440 ft 34.35 °N, 89.52 °W | Updated 3 minutes ago

Mostly Cloudy
Mostly Cloudy
77.0 °F
Feels Like 78 °F
N
5.1
Wind Variable Wind from West

Today
High -- | Low -- °F
--% Chance of Precip.
Yesterday
High -- | Low -- °F
Precip. -- in
5:48 AM 8:03 PM
Waxing Gibbous, 84% visible
Pressure 30.15 in
Visibility 9.0 miles
Clouds Mostly Cloudy 1600 ft
Mostly Cloudy 2200 ft
Heat Index 78 °F
Dew Point 71 °F
Humidity 83%
Rainfall 0.00 in
Snow Depth Not available.
UV 4 out of 12
Pollen 4.20 out of 12
Air Quality Not available.
Flu Activity No Activity
METAR KUOX 291515Z AUTO 16009G15KT 9SM BKN016 BKN022 24/20 A3015 RMK AO2 PWINO PNO

More Conditions Fewer Conditions

Pressure 30.15 in
Visibility 9.0 miles
Clouds Mostly Cloudy 1600 ft
Mostly Cloudy 2200 ft
Heat Index 78 °F
Dew Point 71 °F
Humidity 83%
Rainfall 0.00 in
Snow Depth Not available.
UV 4 out of 12
Pollen 4.20 out of 12
Air Quality Not available.
Flu Activity No Activity
METAR KUOX 291515Z AUTO 16009G15KT 9SM BKN016 BKN022 24/20 A3015 RMK AO2 PWINO PNO

More Conditions Fewer Conditions

10-Day Weather Forecast

Almanac

Astronomy

May. 29, 2015 Rise Set
Actual Time
Civil Twilight
Nautical Twilight
Astronomical Twilight
Moon
Length of Visible Light
Length of Day
Tomorrow will be .
, % of the Moon is Illuminated

Today's Extremes

State Highs State Lows

Community

WunderPhotos

Upload Photos

1,825,294 photos uploaded!

WunderBlogs® & News

Nearby

Air Quality

  Air Quality AQ Index Pollutant
Not available.

Snow Depth

Station Depth Elevation

Earthquake Activity

City Distance Mag. Time & Date
Minimum magnitude displayed is 2.5.

Coastal Water Temperatures

Place Temperature

Stations

Nearby Weather Stations

Station Location Temp. Windchill Dew Point Humidity Wind Precip. Elev Updated Type